createdAt,value
2023-01-13T00:04:05.311Z,9.14
2023-01-13T00:09:07.205Z,9.16
2023-01-13T00:14:09.186Z,9.16
2023-01-13T00:19:11.136Z,9.16
2023-01-13T00:24:13.073Z,9.18
2023-01-13T00:29:14.980Z,9.06
2023-01-13T00:34:17.386Z,9.10
2023-01-13T00:39:19.543Z,9.02
2023-01-13T00:44:21.637Z,9.09
2023-01-13T00:49:23.545Z,9.11
2023-01-13T00:54:25.662Z,9.14
2023-01-13T00:59:27.978Z,9.12
2023-01-13T01:04:29.925Z,9.19
2023-01-13T01:09:35.002Z,9.26
2023-01-13T01:14:36.991Z,9.30
2023-01-13T01:19:39.496Z,9.30
2023-01-13T01:24:41.441Z,9.32
2023-01-13T01:29:43.372Z,9.32
2023-01-13T01:34:45.418Z,9.37
2023-01-13T01:39:47.422Z,9.37
2023-01-13T01:45:02.349Z,9.40
2023-01-13T01:50:05.237Z,9.38
2023-01-13T01:55:16.394Z,9.38
2023-01-13T02:00:18.695Z,9.32
2023-01-13T02:05:22.569Z,9.30
2023-01-13T02:10:28.380Z,9.30
2023-01-13T02:15:58.579Z,9.25
2023-01-13T02:21:09.679Z,9.30
2023-01-13T02:27:00.894Z,9.29
2023-01-13T02:32:17.053Z,9.30
2023-01-13T02:37:30.318Z,9.27
2023-01-13T02:42:52.440Z,9.27
2023-01-13T02:47:58.946Z,9.28
2023-01-13T02:53:11.556Z,9.33
2023-01-13T02:58:17.287Z,9.38
2023-01-13T03:03:19.315Z,9.37
2023-01-13T03:09:06.662Z,9.40
2023-01-13T03:14:18.942Z,9.42
2023-01-13T03:19:29.888Z,9.36
2023-01-13T03:24:39.426Z,9.39
2023-01-13T03:29:46.373Z,9.31
2023-01-13T03:34:55.736Z,9.39
2023-01-13T03:40:19.516Z,9.31
2023-01-13T03:45:21.494Z,9.34
2023-01-13T03:50:35.090Z,9.33
2023-01-13T03:55:44.425Z,9.36
2023-01-13T04:00:58.698Z,9.33
2023-01-13T04:06:32.578Z,9.40
2023-01-13T04:11:41.220Z,9.39
2023-01-13T04:16:43.098Z,9.41
2023-01-13T04:21:45.101Z,9.41
2023-01-13T04:26:46.819Z,9.36
2023-01-13T04:31:48.550Z,9.37
2023-01-13T04:36:50.317Z,9.40
2023-01-13T04:42:02.722Z,9.36
2023-01-13T04:47:05.742Z,9.42
2023-01-13T04:52:07.511Z,9.42
2023-01-13T04:57:09.490Z,9.47
2023-01-13T05:02:15.195Z,9.49
2023-01-13T05:07:17.695Z,9.47
2023-01-13T05:12:38.584Z,9.50
2023-01-13T05:17:41.895Z,9.48
2023-01-13T05:23:02.395Z,9.45
2023-01-13T05:28:04.337Z,9.53
2023-01-13T05:33:06.077Z,9.55
2023-01-13T05:38:08.274Z,9.60
2023-01-13T05:43:22.235Z,9.65
2023-01-13T05:48:27.292Z,9.66
2023-01-13T05:53:29.480Z,9.67
2023-01-13T05:58:31.515Z,9.75
2023-01-13T06:03:33.510Z,9.79
2023-01-13T06:08:35.570Z,9.82
2023-01-13T06:13:38.065Z,9.84
2023-01-13T06:18:39.725Z,9.88
2023-01-13T06:23:41.748Z,9.91
2023-01-13T06:28:43.557Z,9.89
2023-01-13T06:33:53.785Z,9.92
2023-01-13T06:38:59.457Z,9.94
2023-01-13T06:44:01.191Z,9.99
2023-01-13T06:49:03.737Z,9.95
2023-01-13T06:54:05.556Z,10.03
2023-01-13T06:59:07.470Z,10.04
2023-01-13T07:04:09.242Z,10.08
2023-01-13T07:09:11.320Z,10.06
2023-01-13T07:14:31.665Z,10.06
2023-01-13T07:19:33.736Z,10.04
2023-01-13T07:24:35.516Z,10.11
2023-01-13T07:29:37.761Z,10.09
2023-01-13T07:34:39.494Z,10.10
2023-01-13T07:39:41.225Z,10.04
2023-01-13T07:44:43.296Z,10.07
2023-01-13T07:49:45.075Z,10.07
2023-01-13T07:54:46.835Z,10.13
2023-01-13T07:59:48.733Z,10.18
2023-01-13T08:04:50.545Z,10.16
2023-01-13T08:09:52.412Z,10.15
2023-01-13T08:14:54.261Z,10.16
2023-01-13T08:19:56.096Z,10.22
2023-01-13T08:24:59.227Z,10.26
2023-01-13T08:30:01.047Z,10.20
2023-01-13T08:35:03.301Z,10.26
2023-01-13T08:40:06.396Z,10.19
2023-01-13T08:45:08.930Z,10.28
2023-01-13T08:50:14.064Z,10.28
2023-01-13T08:55:16.158Z,10.34
2023-01-13T09:00:18.249Z,10.27
2023-01-13T09:05:20.118Z,10.31
2023-01-13T09:10:21.871Z,10.34
2023-01-13T09:15:23.652Z,10.42
2023-01-13T09:20:25.625Z,10.53
2023-01-13T09:25:27.841Z,10.54
2023-01-13T09:30:29.723Z,10.60
2023-01-13T09:35:31.565Z,10.56
2023-01-13T09:40:33.964Z,10.61
2023-01-13T09:45:44.548Z,10.63
2023-01-13T09:56:03.595Z,10.58
2023-01-13T10:01:23.725Z,10.67
2023-01-13T10:06:44.461Z,10.68
2023-01-13T10:12:08.672Z,10.65
2023-01-13T10:17:28.352Z,10.69
2023-01-13T10:22:52.021Z,10.74
2023-01-13T10:27:57.300Z,10.80
2023-01-13T10:33:02.742Z,10.84
2023-01-13T10:38:04.505Z,10.95
2023-01-13T10:43:06.891Z,10.99
2023-01-13T10:48:15.211Z,11.02
2023-01-13T10:53:24.536Z,11.14
2023-01-13T10:58:27.951Z,11.26
2023-01-13T11:03:43.171Z,11.18
2023-01-13T11:08:48.084Z,11.18
2023-01-13T11:14:12.454Z,11.10
2023-01-13T11:19:18.868Z,11.14
2023-01-13T11:24:53.218Z,11.09
2023-01-13T11:30:19.671Z,11.02
2023-01-13T11:35:22.002Z,10.81
2023-01-13T11:40:42.970Z,10.68
2023-01-13T11:45:49.600Z,10.59
2023-01-13T11:50:57.389Z,10.63
2023-01-13T11:55:59.327Z,10.66
2023-01-13T12:01:32.124Z,10.72
2023-01-13T12:06:41.429Z,10.80
2023-01-13T12:12:08.003Z,10.86
2023-01-13T12:17:23.761Z,10.87
2023-01-13T12:22:31.899Z,10.86
2023-01-13T12:28:00.662Z,10.85
2023-01-13T12:33:17.350Z,10.81
2023-01-13T12:38:36.931Z,10.84
2023-01-13T12:44:07.468Z,10.88
2023-01-13T12:49:34.745Z,10.89
2023-01-13T12:54:39.387Z,10.85
2023-01-13T12:59:41.661Z,10.79
2023-01-13T13:04:49.777Z,10.81
2023-01-13T13:10:02.745Z,10.82
2023-01-13T13:15:19.222Z,10.79
2023-01-13T13:20:54.305Z,10.76
2023-01-13T13:26:06.006Z,10.78
2023-01-13T13:31:43.287Z,10.81
2023-01-13T13:37:21.954Z,10.80
2023-01-13T13:42:39.237Z,10.83
2023-01-13T13:47:41.358Z,10.78
2023-01-13T13:52:52.871Z,10.75
2023-01-13T13:57:57.482Z,10.68
2023-01-13T14:03:07.708Z,10.59
2023-01-13T14:08:09.363Z,10.55
2023-01-13T14:13:26.591Z,10.50
2023-01-13T14:18:32.091Z,10.54
2023-01-13T14:23:34.037Z,10.56
2023-01-13T14:28:38.164Z,10.61
2023-01-13T14:33:42.629Z,10.67
2023-01-13T14:38:48.007Z,10.65
2023-01-13T14:43:51.788Z,10.59
2023-01-13T14:49:01.361Z,10.54
2023-01-13T14:54:03.098Z,10.45
2023-01-13T14:59:33.791Z,10.37
2023-01-13T15:04:38.347Z,10.34
2023-01-13T15:09:42.326Z,10.32
2023-01-13T15:14:44.625Z,10.32
2023-01-13T15:19:46.514Z,10.35
2023-01-13T15:24:48.336Z,10.36
2023-01-13T15:29:50.088Z,10.34
2023-01-13T15:34:53.325Z,10.31
2023-01-13T15:39:55.095Z,10.31
2023-01-13T15:45:15.561Z,10.19
2023-01-13T15:50:18.470Z,10.11
2023-01-13T15:55:20.240Z,10.10
2023-01-13T16:00:22.622Z,10.05
2023-01-13T16:05:24.918Z,9.94
2023-01-13T16:10:28.263Z,9.80
2023-01-13T16:15:30.032Z,9.65
2023-01-13T16:20:31.804Z,9.53
2023-01-13T16:25:34.455Z,9.45
2023-01-13T16:30:37.519Z,9.37
2023-01-13T16:35:43.887Z,9.35
2023-01-13T16:41:01.194Z,9.32
2023-01-13T16:46:29.271Z,9.30
2023-01-13T16:51:31.390Z,9.26
2023-01-13T16:56:36.946Z,9.20
2023-01-13T17:01:40.688Z,9.20
2023-01-13T17:06:52.644Z,9.12
2023-01-13T17:11:55.550Z,8.98
2023-01-13T17:17:00.604Z,9.00
2023-01-13T17:22:03.154Z,8.96
2023-01-13T17:27:05.074Z,8.91
2023-01-13T17:32:06.970Z,8.95
2023-01-13T17:37:09.455Z,8.92
2023-01-13T17:42:12.424Z,8.94
2023-01-13T17:47:14.903Z,8.98
2023-01-13T17:52:16.827Z,9.01
2023-01-13T17:57:18.521Z,9.00
2023-01-13T18:02:20.499Z,8.99
2023-01-13T18:07:22.384Z,8.96
2023-01-13T18:12:25.406Z,8.92
2023-01-13T18:17:27.190Z,8.89
2023-01-13T18:22:47.527Z,8.86
2023-01-13T18:27:49.247Z,8.81
2023-01-13T18:32:50.989Z,8.76
2023-01-13T18:37:52.727Z,8.74
2023-01-13T18:42:55.196Z,8.75
2023-01-13T18:47:59.302Z,8.76
2023-01-13T18:53:01.776Z,8.74
2023-01-13T18:58:03.744Z,8.70
2023-01-13T19:08:07.995Z,8.72
2023-01-13T19:13:09.861Z,8.67
2023-01-13T19:18:13.491Z,8.60
2023-01-13T19:23:15.276Z,8.57
2023-01-13T19:28:17.008Z,8.59
2023-01-13T19:33:19.138Z,8.57
2023-01-13T19:38:21.639Z,8.54
2023-01-13T19:43:42.912Z,8.50
2023-01-13T19:48:44.613Z,8.45
2023-01-13T19:53:47.258Z,8.48
2023-01-13T19:58:50.906Z,8.49
2023-01-13T20:03:52.563Z,8.45
2023-01-13T20:08:54.530Z,8.45
2023-01-13T20:13:56.621Z,8.45
2023-01-13T20:18:58.598Z,8.42
2023-01-13T20:24:01.776Z,8.38
2023-01-13T20:29:04.024Z,8.34
2023-01-13T20:34:05.835Z,8.35
2023-01-13T20:39:08.887Z,8.35
2023-01-13T20:44:11.694Z,8.40
2023-01-13T20:49:16.206Z,8.43
2023-01-13T20:54:18.974Z,8.35
2023-01-13T20:59:22.895Z,8.38
2023-01-13T21:04:24.613Z,8.40
2023-01-13T21:09:27.452Z,8.43
2023-01-13T21:14:49.768Z,8.48
2023-01-13T21:19:51.591Z,8.46
2023-01-13T21:24:53.562Z,8.53
2023-01-13T21:29:55.883Z,8.57
2023-01-13T21:34:59.160Z,8.59
2023-01-13T21:40:01.561Z,8.61
2023-01-13T21:45:22.467Z,8.61
2023-01-13T21:50:28.013Z,8.58
2023-01-13T21:55:30.153Z,8.50
2023-01-13T22:00:33.217Z,8.45
2023-01-13T22:05:36.234Z,8.40
2023-01-13T22:10:57.138Z,8.41
2023-01-13T22:16:04.472Z,8.35
2023-01-13T22:21:06.466Z,8.35
2023-01-13T22:26:08.885Z,8.35
2023-01-13T22:31:17.076Z,8.39
2023-01-13T22:36:19.278Z,8.40
2023-01-13T22:41:20.986Z,8.37
2023-01-13T22:46:23.857Z,8.34
2023-01-13T22:51:26.763Z,8.34
2023-01-13T22:56:28.568Z,8.35
2023-01-13T23:01:32.669Z,8.31
2023-01-13T23:06:35.646Z,8.15
2023-01-13T23:11:37.561Z,8.16
2023-01-13T23:16:40.933Z,8.14
2023-01-13T23:21:42.750Z,8.14
2023-01-13T23:26:44.631Z,8.15
2023-01-13T23:31:47.490Z,8.11
2023-01-13T23:36:49.307Z,8.09
2023-01-13T23:41:51.449Z,8.07
2023-01-13T23:46:53.491Z,7.95
2023-01-13T23:51:55.292Z,7.93
2023-01-13T23:56:57.592Z,8.00
